createdAt,value
2019-01-23T00:00:52.989Z,36.88
2019-01-23T00:03:21.887Z,39.15
2019-01-23T00:05:50.736Z,39.15
2019-01-23T00:08:19.742Z,33.75
2019-01-23T00:10:48.579Z,41.40
2019-01-23T00:13:17.827Z,35.25
2019-01-23T00:15:46.658Z,43.17
2019-01-23T00:18:15.427Z,34.55
2019-01-23T00:20:44.319Z,36.68
2019-01-23T00:23:13.064Z,38.88
2019-01-23T00:25:41.819Z,36.42
2019-01-23T00:28:10.573Z,38.33
2019-01-23T00:30:39.322Z,44.35
2019-01-23T00:33:08.144Z,41.68
2019-01-23T00:35:37.139Z,38.80
2019-01-23T00:38:06.318Z,38.92
2019-01-23T00:40:35.620Z,38.70
2019-01-23T00:43:04.512Z,43.48
2019-01-23T00:45:33.273Z,42.13
2019-01-23T00:48:02.024Z,41.63
2019-01-23T00:50:32.125Z,39.35
2019-01-23T00:53:00.858Z,40.55
2019-01-23T00:55:29.601Z,37.03
2019-01-23T00:57:58.357Z,42.53
2019-01-23T01:00:27.296Z,43.73
2019-01-23T01:02:56.607Z,42.88
2019-01-23T01:05:25.445Z,45.23
2019-01-23T01:07:54.203Z,39.08
2019-01-23T01:10:23.220Z,44.93
2019-01-23T01:12:52.024Z,47.58
2019-01-23T01:15:21.112Z,34.67
2019-01-23T01:17:49.843Z,41.13
2019-01-23T01:20:18.595Z,40.75
2019-01-23T01:22:47.410Z,41.70
2019-01-23T01:25:17.143Z,38.40
2019-01-23T01:27:45.949Z,38.60
2019-01-23T01:30:19.983Z,39.15
2019-01-23T01:32:48.809Z,37.23
2019-01-23T01:35:17.878Z,37.67
2019-01-23T01:37:46.769Z,41.28
2019-01-23T01:40:18.212Z,40.43
2019-01-23T01:42:47.095Z,43.05
2019-01-23T01:45:16.432Z,39.60
2019-01-23T01:47:45.253Z,38.10
2019-01-23T01:50:18.921Z,38.60
2019-01-23T01:52:47.905Z,41.00
2019-01-23T01:55:16.899Z,42.05
2019-01-23T01:57:46.997Z,42.25
2019-01-23T02:00:23.205Z,42.70
2019-01-23T02:02:52.095Z,39.42
2019-01-23T02:05:20.922Z,39.63
2019-01-23T02:07:49.742Z,41.55
2019-01-23T02:10:20.054Z,45.25
2019-01-23T02:12:49.642Z,39.42
2019-01-23T02:15:19.635Z,43.23
2019-01-23T02:17:48.716Z,39.45
2019-01-23T02:20:22.268Z,44.45
2019-01-23T02:22:51.161Z,38.23
2019-01-23T02:25:20.223Z,44.33
2019-01-23T02:27:49.504Z,39.75
2019-01-23T02:30:21.432Z,46.30
2019-01-23T02:32:50.337Z,36.45
2019-01-23T02:35:19.215Z,41.08
2019-01-23T02:37:48.069Z,43.17
2019-01-23T02:40:18.934Z,48.10
2019-01-23T02:42:47.917Z,41.58
2019-01-23T02:45:17.022Z,42.88
2019-01-23T02:47:45.816Z,39.20
2019-01-23T02:50:15.079Z,39.33
2019-01-23T02:52:43.847Z,45.10
2019-01-23T02:55:13.133Z,43.25
2019-01-23T02:57:42.071Z,38.80
2019-01-23T03:00:13.162Z,37.55
2019-01-23T03:02:42.221Z,39.42
2019-01-23T03:05:13.187Z,41.50
2019-01-23T03:07:42.148Z,47.25
2019-01-23T03:10:12.819Z,38.25
2019-01-23T03:12:41.576Z,40.95
2019-01-23T03:15:10.910Z,43.50
2019-01-23T03:17:39.672Z,43.17
2019-01-23T03:20:10.475Z,43.98
2019-01-23T03:22:41.652Z,37.20
2019-01-23T03:25:11.545Z,38.05
2019-01-23T03:27:40.355Z,43.65
2019-01-23T03:30:12.131Z,41.10
2019-01-23T03:32:43.583Z,35.43
2019-01-23T03:35:12.475Z,48.65
2019-01-23T03:37:41.530Z,44.03
2019-01-23T03:40:13.270Z,37.90
2019-01-23T03:42:42.107Z,41.83
2019-01-23T03:45:12.434Z,41.23
2019-01-23T03:47:41.388Z,46.70
2019-01-23T03:50:12.011Z,40.48
2019-01-23T03:52:41.097Z,50.78
2019-01-23T03:55:10.571Z,51.95
2019-01-23T03:57:39.393Z,48.83
2019-01-23T04:00:11.294Z,49.70
2019-01-23T04:02:40.301Z,41.58
2019-01-23T04:05:09.749Z,49.27
2019-01-23T04:07:38.589Z,55.15
2019-01-23T04:10:09.431Z,41.65
2019-01-23T04:12:38.266Z,40.38
2019-01-23T04:15:08.038Z,46.55
2019-01-23T04:17:37.022Z,47.50
2019-01-23T04:20:09.117Z,53.48
2019-01-23T04:22:37.947Z,40.28
2019-01-23T04:25:06.807Z,50.05
2019-01-23T04:27:35.560Z,43.95
2019-01-23T04:30:05.624Z,47.40
2019-01-23T04:32:34.382Z,47.17
2019-01-23T04:35:03.248Z,52.75
2019-01-23T04:37:32.077Z,48.00
2019-01-23T04:40:00.821Z,49.15
2019-01-23T04:42:29.589Z,45.30
2019-01-23T04:44:58.449Z,39.60
2019-01-23T04:47:27.593Z,46.33
2019-01-23T04:49:56.362Z,42.95
2019-01-23T04:52:43.001Z,40.15
2019-01-23T04:55:11.868Z,37.93
2019-01-23T04:57:40.613Z,43.20
2019-01-23T05:00:10.687Z,37.23
2019-01-23T05:02:39.425Z,40.95
2019-01-23T05:05:08.467Z,47.20
2019-01-23T05:07:37.229Z,44.38
2019-01-23T05:10:06.246Z,45.48
2019-01-23T05:12:34.973Z,44.60
2019-01-23T05:15:04.033Z,38.70
2019-01-23T05:17:32.803Z,36.42
2019-01-23T05:20:01.567Z,39.88
2019-01-23T05:22:30.315Z,41.65
2019-01-23T05:24:59.324Z,42.45
2019-01-23T05:27:28.145Z,45.05
2019-01-23T05:29:57.401Z,38.63
2019-01-23T05:32:26.412Z,38.13
2019-01-23T05:34:55.158Z,50.43
2019-01-23T05:37:23.897Z,45.67
2019-01-23T05:39:53.153Z,50.08
2019-01-23T05:42:22.134Z,42.88
2019-01-23T05:44:50.880Z,41.85
2019-01-23T05:47:19.857Z,43.78
2019-01-23T05:49:48.616Z,44.88
2019-01-23T05:52:17.359Z,43.80
2019-01-23T05:54:46.107Z,44.85
2019-01-23T05:57:15.230Z,39.03
2019-01-23T05:59:44.590Z,43.92
2019-01-23T06:02:13.578Z,38.95
2019-01-23T06:04:42.361Z,42.15
2019-01-23T06:07:11.129Z,46.45
2019-01-23T06:09:39.966Z,40.85
2019-01-23T06:12:08.790Z,45.98
2019-01-23T06:14:37.545Z,38.50
2019-01-23T06:17:06.299Z,38.58
2019-01-23T06:19:35.057Z,38.45
2019-01-23T06:22:03.874Z,38.63
2019-01-23T06:24:32.642Z,48.90
2019-01-23T06:27:01.387Z,39.85
2019-01-23T06:29:30.381Z,48.83
2019-01-23T06:31:59.119Z,43.55
2019-01-23T06:34:27.928Z,43.65
2019-01-23T06:36:56.687Z,50.15
2019-01-23T06:39:25.458Z,49.85
2019-01-23T06:41:54.180Z,47.78
2019-01-23T06:44:22.936Z,45.43
2019-01-23T06:46:51.679Z,50.67
2019-01-23T06:49:20.494Z,53.90
2019-01-23T06:51:49.305Z,53.70
2019-01-23T06:54:18.047Z,60.30
2019-01-23T06:56:46.813Z,61.00
2019-01-23T06:59:15.621Z,60.05
2019-01-23T07:01:44.463Z,62.70
2019-01-23T07:04:13.217Z,57.55
2019-01-23T07:06:41.975Z,57.75
2019-01-23T07:09:10.798Z,70.20
2019-01-23T07:11:39.827Z,60.58
2019-01-23T07:14:08.569Z,55.92
2019-01-23T07:16:37.573Z,61.70
2019-01-23T07:19:06.382Z,62.65
2019-01-23T07:21:35.383Z,58.52
2019-01-23T07:24:04.196Z,64.20
2019-01-23T07:26:33.024Z,65.72
2019-01-23T07:29:01.810Z,64.27
2019-01-23T07:31:30.566Z,58.68
2019-01-23T07:33:59.386Z,72.45
2019-01-23T07:36:28.168Z,65.83
2019-01-23T07:38:56.901Z,68.02
2019-01-23T07:41:25.759Z,64.22
2019-01-23T07:43:54.503Z,62.10
2019-01-23T07:46:23.329Z,66.20
2019-01-23T07:48:52.162Z,64.45
2019-01-23T07:51:20.909Z,56.23
2019-01-23T07:53:49.666Z,59.70
2019-01-23T07:56:18.475Z,61.75
2019-01-23T07:58:47.218Z,53.38
2019-01-23T08:01:16.055Z,66.15
2019-01-23T08:03:44.880Z,60.00
2019-01-23T08:06:13.634Z,60.05
2019-01-23T08:08:42.382Z,60.65
2019-01-23T08:11:11.209Z,58.90
2019-01-23T08:13:39.973Z,59.98
2019-01-23T08:16:08.789Z,72.40
2019-01-23T08:18:37.636Z,62.70
2019-01-23T08:21:06.415Z,69.00
2019-01-23T08:23:35.177Z,62.95
2019-01-23T08:26:04.112Z,61.37
2019-01-23T08:28:32.916Z,63.13
2019-01-23T08:31:01.686Z,59.35
2019-01-23T08:33:30.529Z,54.10
2019-01-23T08:35:59.297Z,51.23
2019-01-23T08:38:28.307Z,58.40
2019-01-23T08:40:57.393Z,58.90
2019-01-23T08:43:26.430Z,59.30
2019-01-23T08:45:55.278Z,59.33
2019-01-23T08:48:24.062Z,59.75
2019-01-23T08:50:55.032Z,56.63
2019-01-23T08:53:24.091Z,55.73
2019-01-23T08:55:53.689Z,59.35
2019-01-23T08:58:22.736Z,65.45
2019-01-23T09:00:51.538Z,56.48
2019-01-23T09:03:20.503Z,55.28
2019-01-23T09:05:49.342Z,62.95
2019-01-23T09:08:18.445Z,57.67
2019-01-23T09:10:47.619Z,50.05
2019-01-23T09:13:16.389Z,54.80
2019-01-23T09:15:45.192Z,60.30
2019-01-23T09:18:13.982Z,58.63
2019-01-23T09:20:42.750Z,57.00
2019-01-23T09:23:11.597Z,60.80
2019-01-23T09:25:40.642Z,55.00
2019-01-23T09:28:09.507Z,54.95
2019-01-23T09:30:52.636Z,51.42
2019-01-23T09:33:43.340Z,66.70
2019-01-23T09:36:30.053Z,62.08
2019-01-23T09:39:41.753Z,62.40
2019-01-23T09:42:52.886Z,62.23
2019-01-23T09:45:40.431Z,57.20
2019-01-23T09:49:02.139Z,62.93
2019-01-23T09:51:50.421Z,59.10
2019-01-23T09:54:19.446Z,55.88
2019-01-23T09:56:49.275Z,57.30
2019-01-23T09:59:18.046Z,60.63
2019-01-23T10:01:46.815Z,54.18
2019-01-23T10:04:15.850Z,60.88
2019-01-23T10:06:44.637Z,62.30
2019-01-23T10:09:13.677Z,55.38
2019-01-23T10:11:42.434Z,61.42
2019-01-23T10:14:11.450Z,62.98
2019-01-23T10:16:40.335Z,52.23
2019-01-23T10:19:09.354Z,61.40
2019-01-23T10:21:38.161Z,53.60
2019-01-23T10:24:06.917Z,54.35
2019-01-23T10:26:35.674Z,57.83
2019-01-23T10:29:04.686Z,61.88
2019-01-23T10:31:33.489Z,50.70
2019-01-23T10:34:02.241Z,56.35
2019-01-23T10:36:31.314Z,56.53
2019-01-23T10:39:00.076Z,59.42
2019-01-23T10:41:28.911Z,59.45
2019-01-23T10:43:57.663Z,53.35
2019-01-23T10:46:26.409Z,62.10
2019-01-23T10:48:55.157Z,62.62
2019-01-23T10:51:23.916Z,65.25
2019-01-23T10:53:53.024Z,64.60
2019-01-23T10:56:21.770Z,66.80
2019-01-23T10:58:50.510Z,61.25
2019-01-23T11:01:19.509Z,68.72
2019-01-23T11:03:48.290Z,63.13
2019-01-23T11:06:17.138Z,61.42
2019-01-23T11:08:45.885Z,65.08
2019-01-23T11:11:14.715Z,62.25
2019-01-23T11:13:43.705Z,56.65
2019-01-23T11:16:12.470Z,68.20
2019-01-23T11:18:41.215Z,59.20
2019-01-23T11:21:10.124Z,68.70
2019-01-23T11:23:39.206Z,64.00
2019-01-23T11:26:08.051Z,64.75
2019-01-23T11:28:36.796Z,59.98
2019-01-23T11:31:05.639Z,67.60
2019-01-23T11:33:34.389Z,64.50
2019-01-23T11:36:03.178Z,61.33
2019-01-23T11:38:32.078Z,63.90
2019-01-23T11:41:01.003Z,62.00
2019-01-23T11:43:29.759Z,63.68
2019-01-23T11:45:58.523Z,64.65
2019-01-23T11:48:27.587Z,68.40
2019-01-23T11:50:56.575Z,63.17
2019-01-23T11:53:25.422Z,70.92
2019-01-23T11:55:54.258Z,65.20
2019-01-23T11:58:23.008Z,73.00
2019-01-23T12:00:51.796Z,71.72
2019-01-23T12:03:20.991Z,79.10
2019-01-23T12:05:49.958Z,74.77
2019-01-23T12:08:18.721Z,68.92
2019-01-23T12:10:47.492Z,73.22
2019-01-23T12:13:16.318Z,70.87
2019-01-23T12:15:45.088Z,78.57
2019-01-23T12:18:13.916Z,79.47
2019-01-23T12:20:42.685Z,82.17
2019-01-23T12:23:11.517Z,71.40
2019-01-23T12:25:40.374Z,82.95
2019-01-23T12:28:09.650Z,70.10
2019-01-23T12:30:38.428Z,81.67
2019-01-23T12:33:07.475Z,75.28
2019-01-23T12:35:36.606Z,70.35
2019-01-23T12:38:05.441Z,80.05
2019-01-23T12:40:34.353Z,78.40
2019-01-23T12:43:03.223Z,74.65
2019-01-23T12:45:32.393Z,80.60
2019-01-23T12:48:01.292Z,82.65
2019-01-23T12:50:31.292Z,91.67
2019-01-23T12:53:00.190Z,83.17
2019-01-23T12:55:29.077Z,88.47
2019-01-23T12:57:57.928Z,91.78
2019-01-23T13:00:28.409Z,90.67
2019-01-23T13:02:57.549Z,90.90
2019-01-23T13:05:26.542Z,96.30
2019-01-23T13:07:55.453Z,99.07
2019-01-23T13:10:25.048Z,102.78
2019-01-23T13:12:54.609Z,105.35
2019-01-23T13:15:25.298Z,106.12
2019-01-23T13:17:54.251Z,100.78
2019-01-23T13:20:23.844Z,106.58
2019-01-23T13:22:52.674Z,115.47
2019-01-23T13:25:24.451Z,115.42
2019-01-23T13:27:53.626Z,107.00
2019-01-23T13:30:24.026Z,113.75
2019-01-23T13:32:52.958Z,116.57
2019-01-23T13:35:24.890Z,110.57
2019-01-23T13:37:53.814Z,113.90
2019-01-23T13:40:24.870Z,120.60
2019-01-23T13:42:53.773Z,120.72
2019-01-23T13:45:22.924Z,123.13
2019-01-23T13:47:51.680Z,129.10
2019-01-23T13:50:20.491Z,111.10
2019-01-23T13:52:49.342Z,113.08
2019-01-23T13:55:19.486Z,119.37
2019-01-23T13:57:48.333Z,119.72
2019-01-23T14:00:19.987Z,129.63
2019-01-23T14:02:49.075Z,122.65
2019-01-23T14:05:18.141Z,120.20
2019-01-23T14:07:46.909Z,113.60
2019-01-23T14:10:16.176Z,126.00
2019-01-23T14:12:45.274Z,120.17
2019-01-23T14:15:18.007Z,118.15
2019-01-23T14:17:46.845Z,117.82
2019-01-23T14:20:16.241Z,131.03
2019-01-23T14:22:45.083Z,131.47
2019-01-23T14:25:14.668Z,140.00
2019-01-23T14:27:43.508Z,130.40
2019-01-23T14:30:19.693Z,120.90
2019-01-23T14:32:48.610Z,132.50
2019-01-23T14:35:17.402Z,131.63
2019-01-23T14:37:46.384Z,126.27
2019-01-23T14:40:15.314Z,130.80
2019-01-23T14:42:44.675Z,135.55
2019-01-23T14:45:13.673Z,133.78
2019-01-23T14:47:42.597Z,141.40
2019-01-23T14:50:12.963Z,132.43
2019-01-23T14:52:42.352Z,131.45
2019-01-23T14:55:11.432Z,126.10
2019-01-23T14:57:40.379Z,121.82
2019-01-23T15:00:13.342Z,117.42
2019-01-23T15:02:42.166Z,119.20
2019-01-23T15:05:11.165Z,127.85
2019-01-23T15:07:40.216Z,111.72
2019-01-23T15:10:12.542Z,129.23
2019-01-23T15:12:41.332Z,141.97
2019-01-23T15:15:10.894Z,118.72
2019-01-23T15:17:39.667Z,139.28
2019-01-23T15:20:12.873Z,133.00
2019-01-23T15:22:41.626Z,123.42
2019-01-23T15:25:10.685Z,130.45
2019-01-23T15:27:39.588Z,134.60
2019-01-23T15:30:09.522Z,146.43
2019-01-23T15:32:38.261Z,116.85
2019-01-23T15:35:07.589Z,133.78
2019-01-23T15:37:36.336Z,136.52
2019-01-23T15:40:06.854Z,124.12
2019-01-23T15:42:35.643Z,131.85
2019-01-23T15:45:05.450Z,115.30
2019-01-23T15:47:34.220Z,117.13
2019-01-23T15:50:03.868Z,127.70
2019-01-23T15:52:32.933Z,131.97
2019-01-23T15:55:02.003Z,125.97
2019-01-23T15:57:30.749Z,128.00
2019-01-23T15:59:59.738Z,138.07
2019-01-23T16:02:28.508Z,123.50
2019-01-23T16:04:57.602Z,112.08
2019-01-23T16:07:26.348Z,114.95
2019-01-23T16:09:55.096Z,124.40
2019-01-23T16:12:23.844Z,107.80
2019-01-23T16:14:52.670Z,110.70
2019-01-23T16:17:21.412Z,103.07
2019-01-23T16:19:51.735Z,116.33
2019-01-23T16:22:20.573Z,102.38
2019-01-23T16:24:49.621Z,102.27
2019-01-23T16:27:18.756Z,105.25
2019-01-23T16:29:47.522Z,99.50
2019-01-23T16:32:16.438Z,102.07
2019-01-23T16:34:45.181Z,97.78
2019-01-23T16:37:14.442Z,105.07
2019-01-23T16:39:43.299Z,107.07
2019-01-23T16:42:12.104Z,102.67
2019-01-23T16:44:40.858Z,95.30
2019-01-23T16:47:09.669Z,97.90
2019-01-23T16:49:38.483Z,98.60
2019-01-23T16:52:07.502Z,110.15
2019-01-23T16:54:36.278Z,98.17
2019-01-23T16:57:05.097Z,101.78
2019-01-23T16:59:34.202Z,98.75
2019-01-23T17:02:03.099Z,98.42
2019-01-23T17:04:31.870Z,107.85
2019-01-23T17:07:00.948Z,101.00
2019-01-23T17:09:29.835Z,113.05
2019-01-23T17:11:58.663Z,102.95
2019-01-23T17:14:27.420Z,102.75
2019-01-23T17:16:56.182Z,101.45
2019-01-23T17:19:25.198Z,100.60
2019-01-23T17:21:53.964Z,93.35
2019-01-23T17:24:22.770Z,110.68
2019-01-23T17:26:51.522Z,91.42
2019-01-23T17:29:20.638Z,97.08
2019-01-23T17:31:49.410Z,118.30
2019-01-23T17:34:18.156Z,99.58
2019-01-23T17:36:47.030Z,120.25
2019-01-23T17:39:15.806Z,86.53
2019-01-23T17:41:44.807Z,106.55
2019-01-23T17:44:13.612Z,94.70
2019-01-23T17:46:42.963Z,116.25
2019-01-23T17:49:11.723Z,114.45
2019-01-23T17:51:40.485Z,110.12
2019-01-23T17:54:09.251Z,113.22
2019-01-23T17:56:38.090Z,105.50
2019-01-23T17:59:07.202Z,100.67
2019-01-23T18:01:36.041Z,114.28
2019-01-23T18:04:05.446Z,123.40
2019-01-23T18:06:34.286Z,116.03
2019-01-23T18:09:04.766Z,119.67
2019-01-23T18:11:33.543Z,116.03
2019-01-23T18:14:02.550Z,118.22
2019-01-23T18:16:31.316Z,121.40
2019-01-23T18:19:00.327Z,102.20
2019-01-23T18:21:29.157Z,113.90
2019-01-23T18:23:58.016Z,105.78
2019-01-23T18:26:26.782Z,116.93
2019-01-23T18:28:55.597Z,116.25
2019-01-23T18:31:38.367Z,118.75
2019-01-23T18:34:47.332Z,129.78
2019-01-23T18:37:56.395Z,120.57
2019-01-23T18:40:39.345Z,122.98
2019-01-23T18:43:42.112Z,139.80
2019-01-23T18:46:46.965Z,143.70
2019-01-23T18:49:51.538Z,165.97
2019-01-23T18:52:20.385Z,170.32
2019-01-23T18:54:49.128Z,165.70
2019-01-23T18:57:21.206Z,163.57
2019-01-23T18:59:49.944Z,157.27
2019-01-23T19:02:19.535Z,176.00
2019-01-23T19:04:48.382Z,156.90
2019-01-23T19:07:17.253Z,153.72
2019-01-23T19:09:46.008Z,181.60
2019-01-23T19:12:14.844Z,188.47
2019-01-23T19:14:43.669Z,151.80
2019-01-23T19:17:12.851Z,173.65
2019-01-23T19:19:41.609Z,174.38
2019-01-23T19:22:10.437Z,182.00
2019-01-23T19:24:39.318Z,188.78
2019-01-23T19:27:08.241Z,179.53
2019-01-23T19:29:36.984Z,184.13
2019-01-23T19:32:06.102Z,191.15
2019-01-23T19:34:34.882Z,185.65
2019-01-23T19:37:03.714Z,176.27
2019-01-23T19:39:32.474Z,153.30
2019-01-23T19:42:01.362Z,161.20
2019-01-23T19:44:30.146Z,160.90
2019-01-23T19:46:59.181Z,171.02
2019-01-23T19:49:28.114Z,169.35
2019-01-23T19:51:56.937Z,155.63
2019-01-23T19:54:25.944Z,164.22
2019-01-23T19:56:54.680Z,165.20
2019-01-23T19:59:23.704Z,168.35
2019-01-23T20:01:52.692Z,163.97
2019-01-23T20:04:21.462Z,187.80
2019-01-23T20:06:50.219Z,189.95
2019-01-23T20:09:19.019Z,179.80
2019-01-23T20:11:47.912Z,181.75
2019-01-23T20:14:16.669Z,166.62
2019-01-23T20:16:45.491Z,186.77
2019-01-23T20:19:14.904Z,164.65
2019-01-23T20:21:43.715Z,161.82
2019-01-23T20:24:12.791Z,163.40
2019-01-23T20:26:41.844Z,176.18
2019-01-23T20:29:10.721Z,198.30
2019-01-23T20:31:39.631Z,178.68
2019-01-23T20:34:08.500Z,172.72
2019-01-23T20:36:37.262Z,204.10
2019-01-23T20:39:09.832Z,176.95
2019-01-23T20:41:38.650Z,180.40
2019-01-23T20:44:07.753Z,186.95
2019-01-23T20:46:36.497Z,187.20
2019-01-23T20:49:05.431Z,168.02
2019-01-23T20:51:34.161Z,191.10
2019-01-23T20:54:03.221Z,204.30
2019-01-23T20:56:32.024Z,179.75
2019-01-23T20:59:00.776Z,163.68
2019-01-23T21:01:29.773Z,187.32
2019-01-23T21:03:58.620Z,179.68
2019-01-23T21:06:27.390Z,164.03
2019-01-23T21:08:56.154Z,160.82
2019-01-23T21:11:24.898Z,176.32
2019-01-23T21:13:53.649Z,146.00
2019-01-23T21:16:22.633Z,165.40
2019-01-23T21:18:51.388Z,176.10
2019-01-23T21:21:20.476Z,150.32
2019-01-23T21:23:49.229Z,157.03
2019-01-23T21:26:18.317Z,164.47
2019-01-23T21:28:47.347Z,160.70
2019-01-23T21:31:16.106Z,158.45
2019-01-23T21:33:44.879Z,160.90
2019-01-23T21:36:13.896Z,178.20
2019-01-23T21:38:42.708Z,172.32
2019-01-23T21:41:11.742Z,159.67
2019-01-23T21:43:40.487Z,147.17
2019-01-23T21:46:09.245Z,158.07
2019-01-23T21:48:37.994Z,157.62
2019-01-23T21:51:06.850Z,170.60
2019-01-23T21:53:35.610Z,141.92
2019-01-23T21:56:04.658Z,151.85
2019-01-23T21:58:33.425Z,134.20
2019-01-23T22:01:02.328Z,131.90
2019-01-23T22:03:31.322Z,137.80
2019-01-23T22:06:00.085Z,124.82
2019-01-23T22:08:28.910Z,125.97
2019-01-23T22:10:57.646Z,133.60
2019-01-23T22:13:26.391Z,122.53
2019-01-23T22:15:55.143Z,141.30
2019-01-23T22:18:24.165Z,121.07
2019-01-23T22:20:52.926Z,146.05
2019-01-23T22:23:21.668Z,123.05
2019-01-23T22:25:50.574Z,123.97
2019-01-23T22:28:19.636Z,140.57
2019-01-23T22:30:48.648Z,130.35
2019-01-23T22:33:17.640Z,128.90
2019-01-23T22:35:46.401Z,115.65
2019-01-23T22:38:15.143Z,114.55
2019-01-23T22:40:43.905Z,104.03
2019-01-23T22:43:15.162Z,97.95
2019-01-23T22:45:43.450Z,118.22
2019-01-23T22:48:12.186Z,103.00
2019-01-23T22:50:40.953Z,96.47
2019-01-23T22:53:09.685Z,113.15
2019-01-23T22:55:38.455Z,108.22
2019-01-23T22:58:07.282Z,111.62
2019-01-23T23:00:58.208Z,87.67
2019-01-23T23:03:27.009Z,98.97
2019-01-23T23:05:55.888Z,100.18
2019-01-23T23:08:24.716Z,98.15
2019-01-23T23:10:53.591Z,107.52
2019-01-23T23:13:22.408Z,111.30
2019-01-23T23:15:51.546Z,94.67
2019-01-23T23:18:20.678Z,87.67
2019-01-23T23:20:49.470Z,105.22
2019-01-23T23:23:18.213Z,88.42
2019-01-23T23:25:47.145Z,100.78
2019-01-23T23:28:15.887Z,90.35
2019-01-23T23:30:44.653Z,90.05
2019-01-23T23:33:13.547Z,83.42
2019-01-23T23:35:42.524Z,95.22
2019-01-23T23:38:11.333Z,89.28
2019-01-23T23:40:40.069Z,86.90
2019-01-23T23:43:08.824Z,91.67
2019-01-23T23:45:37.576Z,93.07
2019-01-23T23:48:06.343Z,90.38
2019-01-23T23:50:35.086Z,88.52
2019-01-23T23:53:04.195Z,81.90
2019-01-23T23:55:32.937Z,93.37
2019-01-23T23:58:01.697Z,105.45
